Arrow — CRXN — position and weather

sailwx.info

Track history (hours):
 
Tides and Currents Weather Stations Pressure Air Temp Water Temp Dewpoint Dewpoint Depression Visibility Wind Speed Wind Dir Waves Ship Positions

Arrow

Last reported at 2016-Apr-30 04:30 UTC. Time now 2016-May-01 08:00 UTC.
Position N 43°49' W 007°59'.

Length 126 m; draft 7.7 m.

Type: Ship. MMSI: 255797000.

Date/timePositionNaut miles runAvg speedWind from/ knotsBaromVisibWave heightAir tempDewpointWater temp
2016-Apr-30 04:30N 43°49' W 007°59'1111.4
2016-Apr-30 03:33N 43°50' W 007°44'1110.8
2016-Apr-30 02:33N 43°49' W 007°29'1110.8
2016-Apr-30 01:31N 43°47' W 007°14'  
2016-Apr-26 22:08N 43°38' W 006°03'320 8.0
2016-Apr-25 06:23N 39°08' W 009°51'910.7
2016-Apr-25 05:33N 38°59' W 009°51'1110.6
2016-Apr-25 04:33N 38°48' W 009°51'1110.8
2016-Apr-25 03:34N 38°38' W 009°50'1110.8
2016-Apr-25 02:34N 38°27' W 009°48'1110.8
2016-Apr-25 01:33N 38°17' W 009°43'1110.5
2016-Apr-25 00:33N 38°07' W 009°40'1010.3
2016-Apr-24 23:33N 37°57' W 009°38'1010.1
2016-Apr-24 22:34N 37°47' W 009°35'10 9.8
2016-Apr-24 21:33N 37°37' W 009°32'1010.0
2016-Apr-24 20:33N 37°27' W 009°29'10 9.9
2016-Apr-24 19:33N 37°18' W 009°27'10 9.7
2016-Apr-24 18:33N 37°08' W 009°23'19610.3
2016-Apr-23 23:24N 35°57' W 005°36'8 9.1
2016-Apr-23 22:34N 35°59' W 005°26'7 6.9
2016-Apr-23 21:34N 35°56' W 005°19'2 1.9
2016-Apr-23 20:31N 35°54' W 005°19'0 0.0
2016-Apr-23 19:31N 35°54' W 005°19'0 0.0
2016-Apr-23 18:33N 35°54' W 005°19'0 0.0
2016-Apr-23 17:33N 35°54' W 005°19'0 0.0
2016-Apr-23 16:33N 35°54' W 005°19'3 3.3
2016-Apr-23 15:33N 35°57' W 005°17'9 8.8
2016-Apr-23 14:33N 36°04' W 005°12'21711.3
2016-Apr-22 19:21N 36°35' W 000°45'1011.1
2016-Apr-22 18:27N 36°37' W 000°32'1011.1
2016-Apr-22 17:33N 36°38' W 000°20'2311.3
2016-Apr-22 15:29N 36°41' E 000°09'1111.5
2016-Apr-22 14:33N 36°42' E 000°22'1111.4
2016-Apr-22 13:33N 36°43' E 000°36'1111.4
2016-Apr-22 12:33N 36°45' E 000°50'1111.4
2016-Apr-22 11:33N 36°45' E 001°05'1411.4
2016-Apr-22 10:18N 36°48' E 001°22'  
Track history (hours):
 
Tides and Currents Weather Stations Pressure Air Temp Water Temp Dewpoint Dewpoint Depression Visibility Wind Speed Wind Dir Waves Ship Positions

Arrow

Last reported at 2016-Apr-30 04:30 UTC. Time now 2016-May-01 08:00 UTC.
Position N 43°49' W 007°59'.

Length 126 m; draft 7.7 m.

Type: Ship. MMSI: 255797000.

Date/timePositionNaut miles runAvg speedWind from/ knotsBaromVisibWave heightAir tempDewpointWater temp
2016-Apr-30 04:30N 43°49' W 007°59'1111.4
2016-Apr-30 03:33N 43°50' W 007°44'1110.8
2016-Apr-30 02:33N 43°49' W 007°29'1110.8
2016-Apr-30 01:31N 43°47' W 007°14'  
2016-Apr-26 22:08N 43°38' W 006°03'320 8.0
2016-Apr-25 06:23N 39°08' W 009°51'910.7
2016-Apr-25 05:33N 38°59' W 009°51'1110.6
2016-Apr-25 04:33N 38°48' W 009°51'1110.8
2016-Apr-25 03:34N 38°38' W 009°50'1110.8
2016-Apr-25 02:34N 38°27' W 009°48'1110.8
2016-Apr-25 01:33N 38°17' W 009°43'1110.5
2016-Apr-25 00:33N 38°07' W 009°40'1010.3
2016-Apr-24 23:33N 37°57' W 009°38'1010.1
2016-Apr-24 22:34N 37°47' W 009°35'10 9.8
2016-Apr-24 21:33N 37°37' W 009°32'1010.0
2016-Apr-24 20:33N 37°27' W 009°29'10 9.9
2016-Apr-24 19:33N 37°18' W 009°27'10 9.7
2016-Apr-24 18:33N 37°08' W 009°23'19610.3
2016-Apr-23 23:24N 35°57' W 005°36'8 9.1
2016-Apr-23 22:34N 35°59' W 005°26'7 6.9
2016-Apr-23 21:34N 35°56' W 005°19'2 1.9
2016-Apr-23 20:31N 35°54' W 005°19'0 0.0
2016-Apr-23 19:31N 35°54' W 005°19'0 0.0
2016-Apr-23 18:33N 35°54' W 005°19'0 0.0
2016-Apr-23 17:33N 35°54' W 005°19'0 0.0
2016-Apr-23 16:33N 35°54' W 005°19'3 3.3
2016-Apr-23 15:33N 35°57' W 005°17'9 8.8
2016-Apr-23 14:33N 36°04' W 005°12'21711.3
2016-Apr-22 19:21N 36°35' W 000°45'1011.1
2016-Apr-22 18:27N 36°37' W 000°32'1011.1
2016-Apr-22 17:33N 36°38' W 000°20'2311.3
2016-Apr-22 15:29N 36°41' E 000°09'1111.5
2016-Apr-22 14:33N 36°42' E 000°22'1111.4
2016-Apr-22 13:33N 36°43' E 000°36'1111.4
2016-Apr-22 12:33N 36°45' E 000°50'1111.4
2016-Apr-22 11:33N 36°45' E 001°05'1411.4
2016-Apr-22 10:18N 36°48' E 001°22'  

Dump ship's entire track history